createdAt,value
2018-06-05T00:00:54.052Z,19.50
2018-06-05T00:03:22.543Z,19.50
2018-06-05T00:05:50.943Z,19.50
2018-06-05T00:08:19.391Z,19.50
2018-06-05T00:10:47.927Z,19.60
2018-06-05T00:13:16.380Z,19.50
2018-06-05T00:15:44.736Z,19.40
2018-06-05T00:18:13.153Z,19.50
2018-06-05T00:20:41.579Z,19.50
2018-06-05T00:23:10.187Z,19.50
2018-06-05T00:25:38.766Z,19.50
2018-06-05T00:28:07.205Z,19.40
2018-06-05T00:30:35.726Z,19.40
2018-06-05T00:33:04.256Z,19.40
2018-06-05T00:35:32.727Z,19.40
2018-06-05T00:38:01.116Z,19.30
2018-06-05T00:42:57.714Z,19.30
2018-06-05T00:45:26.092Z,19.30
2018-06-05T00:47:54.496Z,19.40
2018-06-05T00:50:22.897Z,19.40
2018-06-05T00:52:51.408Z,19.40
2018-06-05T00:55:19.864Z,19.30
2018-06-05T00:57:48.340Z,19.20
2018-06-05T01:00:16.790Z,19.10
2018-06-05T01:02:45.346Z,19.10
2018-06-05T01:05:13.723Z,19.10
2018-06-05T01:07:42.153Z,19.00
2018-06-05T01:10:10.618Z,18.90
2018-06-05T01:12:39.049Z,18.90
2018-06-05T01:15:07.466Z,18.80
2018-06-05T01:17:35.954Z,18.80
2018-06-05T01:20:04.802Z,18.80
2018-06-05T01:22:33.398Z,18.80
2018-06-05T01:25:01.760Z,18.80
2018-06-05T01:27:30.198Z,18.70
2018-06-05T01:29:58.564Z,18.60
2018-06-05T01:32:27.000Z,18.60
2018-06-05T01:34:55.452Z,18.60
2018-06-05T01:37:23.903Z,18.60
2018-06-05T01:39:52.382Z,18.60
2018-06-05T01:42:20.803Z,18.50
2018-06-05T01:44:49.182Z,18.50
2018-06-05T01:47:17.598Z,18.50
2018-06-05T01:49:46.004Z,18.50
2018-06-05T01:52:14.418Z,18.40
2018-06-05T01:54:42.810Z,18.40
2018-06-05T01:57:11.199Z,18.40
2018-06-05T01:59:39.589Z,18.40
2018-06-05T02:02:08.005Z,18.30
2018-06-05T02:04:36.396Z,18.20
2018-06-05T02:07:04.776Z,18.20
2018-06-05T02:09:33.172Z,18.10
2018-06-05T02:12:01.612Z,18.00
2018-06-05T02:14:30.011Z,17.90
2018-06-05T02:16:58.451Z,17.90
2018-06-05T02:19:27.033Z,17.90
2018-06-05T02:21:55.407Z,17.90
2018-06-05T02:24:23.831Z,17.80
2018-06-05T02:26:52.230Z,17.80
2018-06-05T02:29:20.660Z,17.80
2018-06-05T02:31:49.081Z,17.70
2018-06-05T02:34:17.486Z,17.60
2018-06-05T02:36:45.879Z,17.60
2018-06-05T02:39:14.332Z,17.50
2018-06-05T02:41:42.695Z,17.50
2018-06-05T02:44:11.095Z,17.40
2018-06-05T02:46:39.597Z,17.40
2018-06-05T02:49:08.017Z,17.30
2018-06-05T02:51:36.593Z,17.30
2018-06-05T02:54:05.041Z,17.30
2018-06-05T02:56:33.577Z,17.20
2018-06-05T02:59:02.070Z,17.30
2018-06-05T03:01:30.521Z,17.30
2018-06-05T03:03:58.915Z,17.20
2018-06-05T03:06:33.736Z,17.20
2018-06-05T03:13:58.584Z,17.40
2018-06-05T03:18:55.123Z,17.30
2018-06-05T03:21:23.512Z,17.30
2018-06-05T03:23:51.877Z,17.40
2018-06-05T03:26:20.718Z,17.40
2018-06-05T03:28:49.081Z,17.40
2018-06-05T03:31:17.469Z,17.50
2018-06-05T03:33:45.940Z,17.60
2018-06-05T03:36:14.450Z,17.60
2018-06-05T03:38:42.939Z,17.60
2018-06-05T03:41:11.350Z,17.60
2018-06-05T03:43:39.743Z,17.50
2018-06-05T03:46:08.182Z,17.50
2018-06-05T03:48:36.597Z,17.60
2018-06-05T03:51:05.031Z,17.60
2018-06-05T03:53:33.471Z,17.70
2018-06-05T03:56:01.918Z,17.80
2018-06-05T03:58:30.366Z,17.80
2018-06-05T04:00:58.743Z,17.80
2018-06-05T04:03:27.127Z,17.90
2018-06-05T04:05:55.548Z,17.90
2018-06-05T04:08:23.945Z,17.80
2018-06-05T04:10:52.337Z,17.80
2018-06-05T04:13:21.601Z,18.00
2018-06-05T04:15:50.338Z,18.20
2018-06-05T04:18:18.894Z,18.40
2018-06-05T04:20:47.494Z,18.50
2018-06-05T04:23:15.878Z,18.50
2018-06-05T04:25:44.257Z,18.50
2018-06-05T04:28:12.645Z,18.40
2018-06-05T04:30:41.040Z,18.40
2018-06-05T04:33:09.536Z,18.50
2018-06-05T04:35:38.052Z,18.70
2018-06-05T04:38:06.470Z,18.70
2018-06-05T04:40:34.956Z,18.80
2018-06-05T04:43:03.488Z,19.00
2018-06-05T04:45:31.960Z,18.90
2018-06-05T04:48:00.404Z,19.00
2018-06-05T04:50:29.068Z,19.20
2018-06-05T04:52:57.482Z,19.20
2018-06-05T04:55:25.964Z,19.30
2018-06-05T04:57:54.427Z,19.30
2018-06-05T05:00:22.877Z,19.40
2018-06-05T05:02:51.349Z,19.60
2018-06-05T05:05:19.779Z,19.80
2018-06-05T05:07:48.274Z,20.00
2018-06-05T05:10:16.714Z,20.00
2018-06-05T05:12:45.235Z,20.00
2018-06-05T05:15:13.658Z,20.20
2018-06-05T05:17:42.092Z,20.40
2018-06-05T05:20:10.580Z,20.50
2018-06-05T05:22:39.014Z,20.70
2018-06-05T05:25:07.457Z,21.10
2018-06-05T05:27:35.859Z,21.20
2018-06-05T05:30:04.676Z,21.60
2018-06-05T05:32:33.085Z,22.20
2018-06-05T05:35:01.664Z,22.70
2018-06-05T05:37:30.068Z,23.00
2018-06-05T05:39:58.524Z,23.60
2018-06-05T05:42:27.064Z,23.50
2018-06-05T05:44:55.539Z,24.30
2018-06-05T05:47:23.952Z,23.80
2018-06-05T05:49:52.361Z,23.80
2018-06-05T05:52:20.746Z,24.10
2018-06-05T05:54:49.160Z,24.10
2018-06-05T05:57:17.586Z,23.40
2018-06-05T06:02:14.123Z,24.30
2018-06-05T06:04:42.520Z,23.90
2018-06-05T06:07:10.909Z,24.20
2018-06-05T06:09:39.317Z,23.30
2018-06-05T06:12:07.833Z,23.40
2018-06-05T06:14:36.372Z,24.20
2018-06-05T06:17:04.840Z,24.50
2018-06-05T06:19:33.288Z,25.00
2018-06-05T06:22:01.732Z,25.50
2018-06-05T06:24:30.208Z,25.70
2018-06-05T06:27:01.139Z,25.20
2018-06-05T06:29:29.637Z,24.90
2018-06-05T06:31:58.444Z,25.80
2018-06-05T06:34:27.050Z,26.20
2018-06-05T06:36:55.577Z,26.40
2018-06-05T06:39:24.064Z,26.40
2018-06-05T06:41:52.567Z,26.40
2018-06-05T06:44:21.207Z,26.40
2018-06-05T06:46:50.295Z,25.70
2018-06-05T06:49:18.707Z,25.40
2018-06-05T06:51:47.146Z,26.00
2018-06-05T06:54:15.584Z,26.30
2018-06-05T06:56:44.137Z,26.90
2018-06-05T06:59:12.547Z,26.80
2018-06-05T07:01:40.909Z,27.40
2018-06-05T07:04:09.372Z,27.40
2018-06-05T07:06:37.915Z,27.70
2018-06-05T07:09:08.311Z,26.70
2018-06-05T07:11:37.255Z,27.20
2018-06-05T07:14:05.810Z,28.00
2018-06-05T07:16:34.351Z,26.50
2018-06-05T07:19:02.835Z,27.70
2018-06-05T07:21:31.457Z,27.50
2018-06-05T07:23:59.886Z,28.30
2018-06-05T07:26:28.341Z,28.20
2018-06-05T07:28:56.760Z,28.40
2018-06-05T07:33:53.429Z,29.70
2018-06-05T07:36:21.861Z,30.10
2018-06-05T07:38:50.348Z,29.20
2018-06-05T07:41:19.179Z,28.60
2018-06-05T07:43:47.611Z,28.60
2018-06-05T07:46:16.185Z,29.10
2018-06-05T07:48:44.570Z,29.50
2018-06-05T07:51:13.148Z,29.70
2018-06-05T07:53:41.663Z,30.60
2018-06-05T07:56:10.099Z,30.50
2018-06-05T07:58:38.618Z,30.60
2018-06-05T08:01:07.203Z,30.60
2018-06-05T08:03:35.753Z,30.40
2018-06-05T08:06:04.235Z,31.00
2018-06-05T08:08:32.592Z,30.80
2018-06-05T08:11:01.245Z,30.30
2018-06-05T08:13:29.692Z,31.00
2018-06-05T08:15:58.224Z,31.30
2018-06-05T08:18:27.067Z,30.90
2018-06-05T08:20:55.566Z,32.00
2018-06-05T08:23:24.042Z,32.00
2018-06-05T08:25:52.523Z,31.80
2018-06-05T08:28:20.986Z,31.50
2018-06-05T08:30:49.721Z,30.90
2018-06-05T08:33:18.126Z,30.40
2018-06-05T08:35:46.515Z,30.10
2018-06-05T08:38:14.936Z,29.40
2018-06-05T08:40:43.345Z,29.10
2018-06-05T08:43:12.035Z,30.10
2018-06-05T08:45:40.477Z,30.60
2018-06-05T08:48:08.918Z,31.60
2018-06-05T08:50:37.371Z,31.20
2018-06-05T08:53:05.879Z,31.30
2018-06-05T08:55:34.288Z,31.80
2018-06-05T08:58:02.753Z,32.10
2018-06-05T09:00:31.229Z,31.20
2018-06-05T09:02:59.669Z,31.30
2018-06-05T09:05:28.089Z,32.20
2018-06-05T09:07:56.518Z,31.50
2018-06-05T09:10:25.048Z,30.10
2018-06-05T09:12:53.478Z,30.00
2018-06-05T09:15:21.842Z,29.30
2018-06-05T09:17:50.377Z,29.40
2018-06-05T09:20:18.767Z,30.00
2018-06-05T09:22:47.215Z,30.30
2018-06-05T09:25:15.689Z,30.00
2018-06-05T09:27:44.213Z,29.40
2018-06-05T09:30:12.667Z,30.10
2018-06-05T09:32:41.064Z,29.70
2018-06-05T09:35:09.792Z,29.90
2018-06-05T09:37:38.225Z,30.80
2018-06-05T09:40:06.700Z,30.90
2018-06-05T09:42:35.113Z,32.10
2018-06-05T09:45:03.600Z,31.20
2018-06-05T09:47:32.095Z,32.50
2018-06-05T09:50:00.631Z,31.40
2018-06-05T09:52:29.037Z,31.50
2018-06-05T09:54:57.420Z,31.70
2018-06-05T09:57:25.894Z,31.00
2018-06-05T09:59:54.454Z,32.20
2018-06-05T10:02:22.888Z,33.20
2018-06-05T10:04:51.296Z,33.40
2018-06-05T10:07:19.679Z,33.40
2018-06-05T10:09:48.210Z,33.10
2018-06-05T10:12:16.603Z,31.50
2018-06-05T10:14:45.090Z,30.70
2018-06-05T10:17:13.480Z,30.10
2018-06-05T10:19:41.949Z,29.40
2018-06-05T10:22:10.470Z,29.00
2018-06-05T10:24:38.916Z,29.30
2018-06-05T10:27:07.307Z,29.90
2018-06-05T10:32:03.951Z,30.50
2018-06-05T10:37:00.503Z,30.70
2018-06-05T10:39:28.941Z,31.70
2018-06-05T10:41:57.428Z,31.80
2018-06-05T10:44:25.866Z,32.00
2018-06-05T10:46:54.410Z,32.80
2018-06-05T10:49:22.845Z,33.10
2018-06-05T10:51:51.296Z,31.90
2018-06-05T10:54:19.696Z,33.20
2018-06-05T10:56:48.082Z,34.10
2018-06-05T10:59:16.474Z,33.00
2018-06-05T11:01:44.898Z,33.30
2018-06-05T11:04:13.336Z,32.10
2018-06-05T11:06:41.740Z,33.80
2018-06-05T11:09:10.132Z,34.50
2018-06-05T11:11:38.556Z,35.30
2018-06-05T11:14:07.095Z,34.40
2018-06-05T11:16:35.668Z,34.70
2018-06-05T11:19:04.221Z,35.40
2018-06-05T11:21:32.652Z,34.80
2018-06-05T11:24:01.158Z,34.00
2018-06-05T11:26:29.577Z,32.30
2018-06-05T11:28:58.219Z,32.60
2018-06-05T11:31:26.645Z,33.30
2018-06-05T11:33:55.145Z,34.70
2018-06-05T11:36:23.660Z,34.40
2018-06-05T11:38:52.216Z,35.10
2018-06-05T11:41:20.700Z,36.20
2018-06-05T11:46:23.673Z,37.00
2018-06-05T11:48:52.138Z,35.40
2018-06-05T11:51:20.559Z,35.60
2018-06-05T11:53:49.050Z,35.60
2018-06-05T11:56:17.626Z,35.90
2018-06-05T11:58:46.051Z,36.10
2018-06-05T12:01:14.451Z,36.80
2018-06-05T12:03:42.937Z,37.60
2018-06-05T12:06:11.349Z,37.10
2018-06-05T12:08:39.887Z,36.70
2018-06-05T12:11:08.467Z,34.90
2018-06-05T12:13:36.936Z,34.00
2018-06-05T12:16:05.413Z,32.70
2018-06-05T12:18:33.975Z,31.10
2018-06-05T12:21:02.413Z,31.80
2018-06-05T12:23:30.945Z,32.90
2018-06-05T12:25:59.445Z,32.20
2018-06-05T12:28:28.000Z,31.40
2018-06-05T12:30:56.483Z,31.60
2018-06-05T12:33:24.961Z,31.80
2018-06-05T12:35:53.468Z,33.90
2018-06-05T12:38:21.927Z,34.80
2018-06-05T12:40:50.416Z,34.90
2018-06-05T12:43:18.872Z,35.00
2018-06-05T12:45:47.359Z,35.50
2018-06-05T12:48:15.820Z,36.00
2018-06-05T12:50:44.315Z,37.00
2018-06-05T12:53:13.022Z,35.80
2018-06-05T12:55:41.453Z,35.50
2018-06-05T12:58:10.011Z,34.90
2018-06-05T13:00:38.444Z,34.60
2018-06-05T13:03:06.998Z,35.00
2018-06-05T13:05:35.444Z,34.90
2018-06-05T13:08:03.949Z,34.80
2018-06-05T13:10:32.357Z,34.30
2018-06-05T13:13:00.760Z,34.10
2018-06-05T13:15:29.256Z,34.00
2018-06-05T13:17:57.790Z,35.40
2018-06-05T13:22:54.390Z,35.40
2018-06-05T13:25:22.773Z,36.70
2018-06-05T13:27:51.333Z,37.10
2018-06-05T13:30:19.885Z,35.90
2018-06-05T13:32:48.404Z,36.30
2018-06-05T13:35:16.873Z,36.50
2018-06-05T13:37:45.456Z,35.50
2018-06-05T13:40:14.312Z,34.60
2018-06-05T13:42:42.739Z,32.90
2018-06-05T13:45:11.127Z,31.80
2018-06-05T13:47:39.539Z,31.70
2018-06-05T13:50:08.009Z,31.80
2018-06-05T13:52:36.482Z,31.40
2018-06-05T13:55:04.877Z,30.80
2018-06-05T13:57:33.395Z,30.50
2018-06-05T14:00:01.815Z,30.30
2018-06-05T14:02:30.369Z,29.80
2018-06-05T14:04:58.855Z,29.70
2018-06-05T14:07:27.281Z,30.10
2018-06-05T14:09:55.800Z,30.20
2018-06-05T14:12:24.291Z,30.10
2018-06-05T14:14:52.849Z,30.00
2018-06-05T14:17:21.493Z,30.00
2018-06-05T14:19:50.098Z,30.20
2018-06-05T14:22:18.537Z,30.10
2018-06-05T14:24:47.022Z,30.40
2018-06-05T14:27:15.723Z,30.20
2018-06-05T14:29:44.187Z,30.00
2018-06-05T14:32:12.648Z,29.90
2018-06-05T14:34:41.116Z,30.00
2018-06-05T14:37:09.584Z,29.50
2018-06-05T14:39:37.970Z,29.60
2018-06-05T14:42:06.708Z,29.70
2018-06-05T14:44:35.140Z,29.80
2018-06-05T14:47:03.598Z,29.80
2018-06-05T14:49:32.042Z,29.30
2018-06-05T14:52:00.633Z,29.50
2018-06-05T14:54:29.175Z,29.70
2018-06-05T14:56:57.676Z,29.50
2018-06-05T14:59:26.128Z,29.00
2018-06-05T15:01:54.562Z,29.00
2018-06-05T15:04:23.054Z,29.00
2018-06-05T15:06:51.462Z,28.90
2018-06-05T15:09:19.924Z,28.40
2018-06-05T15:11:48.327Z,28.70
2018-06-05T15:14:16.815Z,29.00
2018-06-05T15:16:45.225Z,29.30
2018-06-05T15:19:13.643Z,29.60
2018-06-05T15:21:42.092Z,29.30
2018-06-05T15:24:10.581Z,29.20
2018-06-05T15:26:39.114Z,28.90
2018-06-05T15:29:07.628Z,29.00
2018-06-05T15:31:36.324Z,29.40
2018-06-05T15:34:05.062Z,29.50
2018-06-05T15:36:33.817Z,29.70
2018-06-05T15:39:02.462Z,29.40
2018-06-05T15:41:31.011Z,29.20
2018-06-05T15:43:59.447Z,29.40
2018-06-05T15:46:27.922Z,29.50
2018-06-05T15:48:56.383Z,29.50
2018-06-05T15:51:24.822Z,29.40
2018-06-05T15:53:53.280Z,29.20
2018-06-05T15:56:21.758Z,29.30
2018-06-05T15:58:50.186Z,29.50
2018-06-05T16:01:18.789Z,29.30
2018-06-05T16:03:47.287Z,29.50
2018-06-05T16:06:15.787Z,29.40
2018-06-05T16:08:44.223Z,29.40
2018-06-05T16:11:12.816Z,29.40
2018-06-05T16:13:41.384Z,29.00
2018-06-05T16:16:10.002Z,29.20
2018-06-05T16:18:38.467Z,29.30
2018-06-05T16:21:06.993Z,29.50
2018-06-05T16:23:35.409Z,29.30
2018-06-05T16:26:04.020Z,29.20
2018-06-05T16:28:32.454Z,29.10
2018-06-05T16:31:00.869Z,28.80
2018-06-05T16:33:29.369Z,28.80
2018-06-05T16:35:57.861Z,28.60
2018-06-05T16:38:26.346Z,28.50
2018-06-05T16:40:54.891Z,28.70
2018-06-05T16:43:23.337Z,28.90
2018-06-05T16:45:51.828Z,29.00
2018-06-05T16:48:20.340Z,29.00
2018-06-05T16:50:49.900Z,29.10
2018-06-05T16:53:18.404Z,29.00
2018-06-05T16:55:46.948Z,28.70
2018-06-05T16:58:15.452Z,28.60
2018-06-05T17:00:43.902Z,28.80
2018-06-05T17:03:12.565Z,28.90
2018-06-05T17:05:41.049Z,28.80
2018-06-05T17:08:09.552Z,28.90
2018-06-05T17:10:38.081Z,28.80
2018-06-05T17:13:06.589Z,28.70
2018-06-05T17:15:35.055Z,28.70
2018-06-05T17:18:03.540Z,28.50
2018-06-05T17:20:35.070Z,28.40
2018-06-05T17:23:03.482Z,28.10
2018-06-05T17:25:31.967Z,28.10
2018-06-05T17:28:00.497Z,28.10
2018-06-05T17:30:28.971Z,28.20
2018-06-05T17:32:57.499Z,28.10
2018-06-05T17:35:26.147Z,28.20
2018-06-05T17:37:54.656Z,28.20
2018-06-05T17:40:23.190Z,28.10
2018-06-05T17:42:51.583Z,27.90
2018-06-05T17:45:20.181Z,27.90
2018-06-05T17:47:48.592Z,28.00
2018-06-05T17:50:17.116Z,27.90
2018-06-05T17:52:45.710Z,27.80
2018-06-05T17:55:14.354Z,27.60
2018-06-05T17:57:42.876Z,27.70
2018-06-05T18:00:11.381Z,27.60
2018-06-05T18:02:40.071Z,27.50
2018-06-05T18:05:08.516Z,27.50
2018-06-05T18:07:37.022Z,27.50
2018-06-05T18:10:05.513Z,27.40
2018-06-05T18:12:34.152Z,27.30
2018-06-05T18:15:02.707Z,27.20
2018-06-05T18:17:31.287Z,27.00
2018-06-05T18:19:59.839Z,27.00
2018-06-05T18:22:28.322Z,26.90
2018-06-05T18:24:57.317Z,26.80
2018-06-05T18:27:25.843Z,26.60
2018-06-05T18:29:54.561Z,26.50
2018-06-05T18:32:23.196Z,26.40
2018-06-05T18:34:52.103Z,26.30
2018-06-05T18:37:20.763Z,26.20
2018-06-05T18:39:49.356Z,26.10
2018-06-05T18:42:17.837Z,26.00
2018-06-05T18:44:46.547Z,26.00
2018-06-05T18:47:15.474Z,25.90
2018-06-05T18:49:44.279Z,25.90
2018-06-05T18:52:12.959Z,25.80
2018-06-05T18:54:41.555Z,25.80
2018-06-05T18:57:10.528Z,25.70
2018-06-05T18:59:39.144Z,25.60
2018-06-05T19:02:07.925Z,25.60
2018-06-05T19:04:36.497Z,25.50
2018-06-05T19:07:05.225Z,25.40
2018-06-05T19:09:34.144Z,25.30
2018-06-05T19:12:02.737Z,25.20
2018-06-05T19:14:31.426Z,25.10
2018-06-05T19:16:59.937Z,25.00
2018-06-05T19:19:28.521Z,24.90
2018-06-05T19:21:56.986Z,24.80
2018-06-05T19:24:25.552Z,24.70
2018-06-05T19:26:54.022Z,24.60
2018-06-05T19:31:50.838Z,24.50
2018-06-05T19:34:19.418Z,24.40
2018-06-05T19:36:48.238Z,24.30
2018-06-05T19:39:16.841Z,24.10
2018-06-05T19:41:45.522Z,24.10
2018-06-05T19:44:15.084Z,24.00
2018-06-05T19:46:44.006Z,23.90
2018-06-05T19:49:13.125Z,23.90
2018-06-05T19:51:41.904Z,23.80
2018-06-05T19:54:11.202Z,23.70
2018-06-05T19:56:40.218Z,23.70
2018-06-05T19:59:09.055Z,23.60
2018-06-05T20:01:38.063Z,23.50
2018-06-05T20:04:07.524Z,23.40
2018-06-05T20:06:36.418Z,23.30
2018-06-05T20:09:07.272Z,23.20
2018-06-05T20:11:36.206Z,23.10
2018-06-05T20:14:04.907Z,23.10
2018-06-05T20:16:34.098Z,23.00
2018-06-05T20:19:02.641Z,23.00
2018-06-05T20:21:31.372Z,23.00
2018-06-05T20:23:59.949Z,22.90
2018-06-05T20:26:28.714Z,22.90
2018-06-05T20:31:25.561Z,22.80
2018-06-05T20:33:54.799Z,22.70
2018-06-05T20:36:30.366Z,22.70
2018-06-05T20:38:58.870Z,22.70
2018-06-05T20:41:27.342Z,22.70
2018-06-05T20:43:55.991Z,22.70
2018-06-05T20:46:24.485Z,22.60
2018-06-05T20:48:53.114Z,22.60
2018-06-05T20:51:21.632Z,22.60
2018-06-05T20:53:50.185Z,22.60
2018-06-05T20:56:18.849Z,22.50
2018-06-05T20:58:47.314Z,22.50
2018-06-05T21:01:15.810Z,22.50
2018-06-05T21:03:44.292Z,22.50
2018-06-05T21:06:12.871Z,22.50
2018-06-05T21:08:41.312Z,22.50
2018-06-05T21:11:09.875Z,22.50
2018-06-05T21:13:38.313Z,22.40
2018-06-05T21:16:06.977Z,22.40
2018-06-05T21:18:35.554Z,22.30
2018-06-05T21:21:04.210Z,22.30
2018-06-05T21:23:32.740Z,22.20
2018-06-05T21:26:01.203Z,22.10
2018-06-05T21:28:29.685Z,22.10
2018-06-05T21:30:58.412Z,22.00
2018-06-05T21:35:55.025Z,22.00
2018-06-05T21:38:23.644Z,21.90
2018-06-05T21:40:52.147Z,21.90
2018-06-05T21:43:20.715Z,21.90
2018-06-05T21:48:17.415Z,21.80
2018-06-05T21:50:45.990Z,21.80
2018-06-05T21:53:14.484Z,21.70
2018-06-05T21:55:43.007Z,21.60
2018-06-05T21:58:11.528Z,21.60
2018-06-05T22:00:40.245Z,21.60
2018-06-05T22:03:08.750Z,21.50
2018-06-05T22:05:37.384Z,21.50
2018-06-05T22:08:05.877Z,21.40
2018-06-05T22:10:40.905Z,21.30
2018-06-05T22:13:09.457Z,21.30
2018-06-05T22:15:37.902Z,21.20
2018-06-05T22:18:06.578Z,21.20
2018-06-05T22:20:35.033Z,21.20
2018-06-05T22:23:03.528Z,21.20
2018-06-05T22:25:32.091Z,21.10
2018-06-05T22:28:00.547Z,21.10
2018-06-05T22:32:58.569Z,21.10
2018-06-05T22:35:27.143Z,21.10
2018-06-05T22:37:55.587Z,21.00
2018-06-05T22:40:24.119Z,21.00
2018-06-05T22:42:52.578Z,21.00
2018-06-05T22:45:21.029Z,20.90
2018-06-05T22:47:49.489Z,20.90
2018-06-05T22:50:18.082Z,20.90
2018-06-05T22:52:46.525Z,20.90
2018-06-05T22:55:15.054Z,20.80
2018-06-05T23:00:11.746Z,20.80
2018-06-05T23:02:40.230Z,20.80
2018-06-05T23:05:08.734Z,20.80
2018-06-05T23:07:37.110Z,20.70
2018-06-05T23:10:05.878Z,20.70
2018-06-05T23:12:34.278Z,20.70
2018-06-05T23:15:02.686Z,20.70
2018-06-05T23:17:31.202Z,20.70
2018-06-05T23:19:59.649Z,20.60
2018-06-05T23:22:28.037Z,20.60
2018-06-05T23:24:56.488Z,20.60
2018-06-05T23:27:25.012Z,20.50
2018-06-05T23:29:53.458Z,20.50
2018-06-05T23:32:21.920Z,20.50
2018-06-05T23:34:50.364Z,20.50
2018-06-05T23:37:18.843Z,20.40
2018-06-05T23:39:47.260Z,20.40
2018-06-05T23:42:15.749Z,20.30
2018-06-05T23:44:44.202Z,20.30
2018-06-05T23:47:12.714Z,20.30
2018-06-05T23:49:41.133Z,20.20
2018-06-05T23:52:09.614Z,20.20
2018-06-05T23:54:38.085Z,20.20
2018-06-05T23:57:06.623Z,20.20
2018-06-05T23:59:35.141Z,20.10
